createdAt,value
2022-09-12T00:00:05.817Z,99.00
2022-09-12T00:00:17.781Z,98.80
2022-09-12T00:00:31.884Z,99.00
2022-09-12T00:00:43.727Z,99.00
2022-09-12T00:01:27.939Z,99.00
2022-09-12T00:01:39.743Z,99.00
2022-09-12T00:01:51.480Z,99.10
2022-09-12T00:02:03.956Z,99.20
2022-09-12T00:02:15.749Z,99.10
2022-09-12T00:02:27.556Z,99.10
2022-09-12T00:02:39.286Z,99.10
2022-09-12T00:02:54.283Z,99.10
2022-09-12T00:03:06.045Z,99.20
2022-09-12T00:03:17.773Z,98.90
2022-09-12T00:03:29.590Z,99.20
2022-09-12T00:03:41.485Z,99.40
2022-09-12T00:03:58.270Z,99.20
2022-09-12T00:04:10.217Z,99.20
2022-09-12T00:04:21.997Z,99.30
2022-09-12T00:04:33.712Z,99.30
2022-09-12T00:04:45.462Z,99.20
2022-09-12T00:04:57.243Z,99.10
2022-09-12T00:05:09.325Z,99.20
2022-09-12T00:05:22.072Z,99.20
2022-09-12T00:05:34.050Z,99.10
2022-09-12T00:05:47.790Z,99.30
2022-09-12T00:05:59.554Z,99.40
2022-09-12T00:06:18.117Z,99.40
2022-09-12T00:06:34.357Z,99.40
2022-09-12T00:06:46.202Z,99.30
2022-09-12T00:06:58.021Z,99.40
2022-09-12T00:07:09.749Z,99.50
2022-09-12T00:07:21.616Z,99.80
2022-09-12T00:07:34.389Z,99.80
2022-09-12T00:07:47.062Z,99.60
2022-09-12T00:07:59.260Z,99.50
2022-09-12T00:08:11.130Z,99.60
2022-09-12T00:08:22.992Z,99.40
2022-09-12T00:08:35.285Z,99.50
2022-09-12T00:08:47.088Z,99.30
2022-09-12T00:09:00.832Z,99.30
2022-09-12T00:09:13.879Z,99.40
2022-09-12T00:09:26.371Z,99.50
2022-09-12T00:09:38.295Z,99.20
2022-09-12T00:09:50.037Z,99.20
2022-09-12T00:10:02.082Z,99.30
2022-09-12T00:10:14.079Z,99.20
2022-09-12T00:10:26.013Z,99.30
2022-09-12T00:10:40.015Z,99.50
2022-09-12T00:10:51.918Z,99.30
2022-09-12T00:11:07.811Z,99.20
2022-09-12T00:11:19.919Z,99.40
2022-09-12T00:11:32.658Z,99.50
2022-09-12T00:11:45.306Z,99.40
2022-09-12T00:11:57.045Z,99.40
2022-09-12T00:12:08.826Z,99.40
2022-09-12T00:12:20.718Z,99.30
2022-09-12T00:12:33.311Z,99.40
2022-09-12T00:12:45.251Z,99.50
2022-09-12T00:12:57.889Z,99.70
2022-09-12T00:13:10.381Z,99.60
2022-09-12T00:13:22.133Z,99.40
2022-09-12T00:13:37.271Z,99.20
2022-09-12T00:13:52.369Z,99.20
2022-09-12T00:14:06.313Z,99.40
2022-09-12T00:14:18.980Z,99.40
2022-09-12T00:14:30.810Z,99.30
2022-09-12T00:14:42.885Z,99.50
2022-09-12T00:14:54.922Z,99.40
2022-09-12T00:15:07.514Z,99.40
2022-09-12T00:15:19.368Z,99.30
2022-09-12T00:15:31.177Z,99.50
2022-09-12T00:15:44.545Z,99.40
2022-09-12T00:15:56.362Z,99.40
2022-09-12T00:16:08.415Z,99.40
2022-09-12T00:16:24.845Z,99.70
2022-09-12T00:16:37.169Z,99.80
2022-09-12T00:16:49.199Z,99.70
2022-09-12T00:17:01.383Z,99.70
2022-09-12T00:17:13.396Z,99.80
2022-09-12T00:17:25.262Z,99.80
2022-09-12T00:17:37.919Z,99.70
2022-09-12T00:17:49.975Z,99.60
2022-09-12T00:18:02.574Z,99.40
2022-09-12T00:18:16.723Z,99.50
2022-09-12T00:18:28.826Z,99.70
2022-09-12T00:18:40.636Z,99.70
2022-09-12T00:18:54.166Z,99.70
2022-09-12T00:19:07.127Z,99.60
2022-09-12T00:19:19.220Z,99.60
2022-09-12T00:19:30.941Z,99.50
2022-09-12T00:19:42.705Z,99.40
2022-09-12T00:19:55.282Z,99.40
2022-09-12T00:20:08.712Z,99.60
2022-09-12T00:20:20.844Z,99.40
2022-09-12T00:20:32.850Z,99.50
2022-09-12T00:20:46.242Z,99.60
2022-09-12T00:20:58.185Z,99.50
2022-09-12T00:21:13.569Z,99.40
2022-09-12T00:21:25.535Z,99.20
2022-09-12T00:21:38.234Z,99.20
2022-09-12T00:21:50.754Z,99.30
2022-09-12T00:22:02.757Z,99.40
2022-09-12T00:22:14.726Z,99.40
2022-09-12T00:22:26.837Z,99.50
2022-09-12T00:22:40.599Z,99.50
2022-09-12T00:22:52.664Z,99.70
2022-09-12T00:23:05.397Z,99.80
2022-09-12T00:23:17.284Z,99.90
2022-09-12T00:23:29.217Z,99.80
2022-09-12T00:23:41.457Z,99.60
2022-09-12T00:23:53.383Z,99.70
2022-09-12T00:24:07.594Z,99.80
2022-09-12T00:24:19.351Z,99.80
2022-09-12T00:24:31.206Z,99.80
2022-09-12T00:24:44.911Z,99.80
2022-09-12T00:24:56.765Z,99.80
2022-09-12T00:25:08.945Z,99.60
2022-09-12T00:25:20.770Z,99.70
2022-09-12T00:25:32.808Z,99.60
2022-09-12T00:25:45.772Z,99.70
2022-09-12T00:25:57.615Z,99.80
2022-09-12T00:26:11.400Z,99.70
2022-09-12T00:26:23.258Z,99.70
2022-09-12T00:26:35.075Z,99.70
2022-09-12T00:26:46.894Z,99.60
2022-09-12T00:26:58.771Z,99.70
2022-09-12T00:27:10.971Z,99.60
2022-09-12T00:27:23.605Z,99.40
2022-09-12T00:27:35.718Z,99.50
2022-09-12T00:27:47.679Z,99.60
2022-09-12T00:27:59.466Z,99.70
2022-09-12T00:28:12.090Z,99.70
2022-09-12T00:28:23.860Z,99.70
2022-09-12T00:28:36.161Z,99.60
2022-09-12T00:28:48.194Z,99.50
2022-09-12T00:29:00.094Z,99.50
2022-09-12T00:29:21.582Z,99.50
2022-09-12T00:29:33.502Z,99.40
2022-09-12T00:29:45.265Z,99.50
2022-09-12T00:29:56.942Z,99.50
2022-09-12T00:30:09.019Z,99.60
2022-09-12T00:30:21.001Z,99.60
2022-09-12T00:30:33.726Z,99.50
2022-09-12T00:30:47.020Z,99.50
2022-09-12T00:30:58.884Z,99.70
2022-09-12T00:31:12.563Z,99.80
2022-09-12T00:31:25.276Z,99.80
2022-09-12T00:31:37.083Z,99.80
2022-09-12T00:31:48.987Z,99.80
2022-09-12T00:32:00.890Z,99.80
2022-09-12T00:32:12.740Z,99.90
2022-09-12T00:32:24.458Z,99.90
2022-09-12T00:32:36.229Z,99.70
2022-09-12T00:32:48.334Z,99.60
2022-09-12T00:33:00.064Z,99.80
2022-09-12T00:33:11.942Z,99.90
2022-09-12T00:33:24.285Z,99.90
2022-09-12T00:33:36.186Z,99.80
2022-09-12T00:33:48.271Z,99.70
2022-09-12T00:34:01.831Z,99.70
2022-09-12T00:34:14.041Z,99.70
2022-09-12T00:34:25.939Z,99.80
2022-09-12T00:34:37.756Z,99.90
2022-09-12T00:34:49.505Z,99.80
2022-09-12T00:35:02.859Z,99.80
2022-09-12T00:35:14.680Z,99.80
2022-09-12T00:35:26.427Z,99.80
2022-09-12T00:35:45.618Z,99.70
2022-09-12T00:35:57.300Z,99.70
2022-09-12T00:36:17.177Z,99.70
2022-09-12T00:36:29.349Z,99.90
2022-09-12T00:36:41.365Z,99.80
2022-09-12T00:36:53.117Z,99.80
2022-09-12T00:37:04.948Z,99.80
2022-09-12T00:37:16.734Z,99.80
2022-09-12T00:37:28.406Z,99.90
2022-09-12T00:37:40.125Z,99.90
2022-09-12T00:37:51.809Z,99.80
2022-09-12T00:38:03.969Z,99.80
2022-09-12T00:38:16.009Z,99.90
2022-09-12T00:38:27.661Z,99.80
2022-09-12T00:38:41.954Z,99.80
2022-09-12T00:38:54.670Z,99.80
2022-09-12T00:39:06.834Z,99.90
2022-09-12T00:39:19.221Z,99.90
2022-09-12T00:39:30.930Z,99.90
2022-09-12T00:39:42.756Z,99.80
2022-09-12T00:39:54.520Z,99.80
2022-09-12T00:40:06.995Z,99.80
2022-09-12T00:40:18.809Z,99.90
2022-09-12T00:40:30.506Z,99.90
2022-09-12T00:40:42.356Z,99.90
2022-09-12T00:40:54.103Z,99.80
2022-09-12T00:41:06.319Z,99.80
2022-09-12T00:41:23.224Z,99.80
2022-09-12T00:41:38.866Z,99.90
2022-09-12T00:41:50.585Z,99.90
2022-09-12T00:42:02.563Z,99.90
2022-09-12T00:42:14.321Z,99.90
2022-09-12T00:42:26.181Z,99.90
2022-09-12T00:42:38.002Z,99.90
2022-09-12T00:42:49.927Z,99.90
2022-09-12T00:43:01.694Z,99.90
2022-09-12T00:43:38.190Z,99.90
2022-09-12T00:43:51.804Z,99.90
2022-09-12T00:44:10.814Z,99.90
2022-09-12T00:44:22.496Z,99.90
2022-09-12T00:44:37.181Z,99.90
2022-09-12T00:44:50.822Z,99.90
2022-09-12T00:45:02.576Z,99.90
2022-09-12T00:45:22.453Z,99.90
2022-09-12T00:45:34.342Z,99.90
2022-09-12T00:45:46.065Z,99.90
2022-09-12T00:45:58.429Z,99.90
2022-09-12T00:46:15.110Z,99.90
2022-09-12T00:46:40.389Z,99.90
2022-09-12T00:46:59.870Z,99.90
2022-09-12T00:47:29.658Z,99.90
2022-09-12T00:47:41.334Z,99.90
2022-09-12T00:47:53.119Z,99.90
2022-09-12T00:48:11.252Z,99.90
2022-09-12T00:48:25.743Z,99.90
2022-09-12T00:48:42.214Z,99.90
2022-09-12T00:48:57.413Z,99.90
2022-09-12T00:49:28.262Z,99.90
2022-09-12T00:49:45.736Z,99.90
2022-09-12T00:50:07.533Z,99.90
2022-09-12T00:50:19.307Z,99.90
2022-09-12T00:50:32.060Z,99.90
2022-09-12T00:50:43.834Z,99.90
2022-09-12T00:50:55.544Z,99.90
2022-09-12T00:51:07.243Z,99.90
2022-09-12T00:51:19.099Z,99.90
2022-09-12T00:51:32.105Z,99.90
2022-09-12T00:51:46.840Z,99.90
2022-09-12T00:52:00.491Z,99.90
2022-09-12T00:52:16.582Z,99.90
2022-09-12T00:52:37.131Z,99.90
2022-09-12T00:52:53.588Z,99.90
2022-09-12T00:53:06.385Z,99.90
2022-09-12T00:53:18.069Z,99.90
2022-09-12T00:53:29.748Z,99.90
2022-09-12T00:53:41.502Z,99.90
2022-09-12T00:53:53.345Z,99.90
2022-09-12T00:54:08.932Z,99.90
2022-09-12T00:54:22.993Z,99.90
2022-09-12T00:54:38.758Z,99.90
2022-09-12T00:55:17.253Z,99.90
2022-09-12T00:55:41.510Z,99.90
2022-09-12T00:55:53.266Z,99.90
2022-09-12T00:56:05.141Z,99.90
2022-09-12T00:56:17.573Z,99.90
2022-09-12T00:56:29.336Z,99.90
2022-09-12T00:56:41.662Z,99.90
2022-09-12T00:56:54.460Z,99.90
2022-09-12T00:57:06.787Z,99.90
2022-09-12T00:57:18.841Z,99.90
2022-09-12T00:57:33.640Z,99.90
2022-09-12T00:57:56.719Z,99.90
2022-09-12T00:58:14.805Z,99.90
2022-09-12T00:58:29.449Z,99.90
2022-09-12T00:58:44.283Z,99.90
2022-09-12T00:59:00.745Z,99.90
2022-09-12T00:59:19.317Z,99.90
2022-09-12T00:59:42.796Z,99.90
2022-09-12T00:59:57.815Z,99.90
2022-09-12T01:00:15.423Z,99.90
2022-09-12T01:00:27.624Z,99.90
2022-09-12T01:00:39.407Z,99.90
2022-09-12T01:00:51.525Z,99.90
2022-09-12T01:01:03.565Z,99.90
2022-09-12T01:01:15.452Z,99.90
2022-09-12T01:01:31.743Z,99.90
2022-09-12T01:01:44.864Z,99.90
2022-09-12T01:01:56.744Z,99.90
2022-09-12T01:02:08.748Z,99.90
2022-09-12T01:02:21.407Z,99.90
2022-09-12T01:02:33.140Z,99.90
2022-09-12T01:02:46.840Z,99.90
2022-09-12T01:03:06.162Z,99.90
2022-09-12T01:03:19.526Z,99.90
2022-09-12T01:03:31.263Z,99.90
2022-09-12T01:03:42.979Z,99.90
2022-09-12T01:03:54.864Z,99.90
2022-09-12T01:04:08.229Z,99.90
2022-09-12T01:04:21.506Z,99.90
2022-09-12T01:04:33.783Z,99.90
2022-09-12T01:04:45.585Z,99.90
2022-09-12T01:04:57.441Z,99.90
2022-09-12T01:05:09.226Z,99.90
2022-09-12T01:05:21.429Z,99.90
2022-09-12T01:05:34.692Z,99.90
2022-09-12T01:05:56.936Z,99.90
2022-09-12T01:06:23.846Z,99.90
2022-09-12T01:06:40.569Z,99.90
2022-09-12T01:06:52.258Z,99.90
2022-09-12T01:07:04.117Z,99.90
2022-09-12T01:07:15.968Z,99.90
2022-09-12T01:07:28.110Z,99.90
2022-09-12T01:07:40.465Z,99.90
2022-09-12T01:07:52.319Z,99.90
2022-09-12T01:08:04.435Z,99.90
2022-09-12T01:08:16.128Z,99.90
2022-09-12T01:08:28.483Z,99.90
2022-09-12T01:08:41.166Z,99.90
2022-09-12T01:08:52.886Z,99.90
2022-09-12T01:09:05.126Z,99.90
2022-09-12T01:09:18.472Z,99.90
2022-09-12T01:09:30.237Z,99.90
2022-09-12T01:09:42.470Z,99.90
2022-09-12T01:09:54.236Z,99.90
2022-09-12T01:10:07.243Z,99.90
2022-09-12T01:10:19.029Z,99.90
2022-09-12T01:10:31.256Z,99.90
2022-09-12T01:10:43.064Z,99.90
2022-09-12T01:10:55.024Z,99.90
2022-09-12T01:11:09.270Z,99.90
2022-09-12T01:11:21.315Z,99.90
2022-09-12T01:11:34.767Z,99.90
2022-09-12T01:11:47.069Z,99.90
2022-09-12T01:11:59.014Z,99.90
2022-09-12T01:12:11.225Z,99.90
2022-09-12T01:12:22.981Z,99.90
2022-09-12T01:12:34.756Z,99.90
2022-09-12T01:12:46.540Z,99.90
2022-09-12T01:12:58.314Z,99.90
2022-09-12T01:13:10.198Z,99.90
2022-09-12T01:13:21.906Z,99.90
2022-09-12T01:13:43.557Z,99.90
2022-09-12T01:13:55.221Z,99.90
2022-09-12T01:14:07.478Z,99.90
2022-09-12T01:14:19.458Z,99.90
2022-09-12T01:14:31.179Z,99.90
2022-09-12T01:14:42.871Z,99.90
2022-09-12T01:14:54.588Z,99.90
2022-09-12T01:15:07.039Z,99.90
2022-09-12T01:15:18.857Z,99.90
2022-09-12T01:15:30.620Z,99.90
2022-09-12T01:15:42.451Z,99.90
2022-09-12T01:15:54.299Z,99.90
2022-09-12T01:16:07.086Z,99.90
2022-09-12T01:16:18.928Z,99.90
2022-09-12T01:16:30.820Z,99.90
2022-09-12T01:16:42.789Z,99.90
2022-09-12T01:16:54.527Z,99.90
2022-09-12T01:17:06.520Z,99.90
2022-09-12T01:17:18.317Z,99.90
2022-09-12T01:17:34.713Z,99.90
2022-09-12T01:18:02.097Z,99.90
2022-09-12T01:18:31.836Z,99.90
2022-09-12T01:18:48.914Z,99.90
2022-09-12T01:19:35.186Z,99.90
2022-09-12T01:19:52.820Z,99.90
2022-09-12T01:20:28.335Z,99.90
2022-09-12T01:20:47.003Z,99.90
2022-09-12T01:21:18.464Z,99.90
2022-09-12T01:21:34.684Z,99.90
2022-09-12T01:21:57.396Z,99.90
2022-09-12T01:22:27.650Z,99.90
2022-09-12T01:23:25.105Z,99.90
2022-09-12T01:24:07.167Z,99.90
2022-09-12T01:24:38.179Z,99.90
2022-09-12T01:25:14.672Z,99.90
2022-09-12T01:25:38.144Z,99.90
2022-09-12T01:26:28.170Z,99.90
2022-09-12T01:26:52.074Z,99.90
2022-09-12T01:27:11.600Z,99.90
2022-09-12T01:27:49.355Z,99.90
2022-09-12T01:28:28.663Z,99.90
2022-09-12T01:28:47.183Z,99.90
2022-09-12T01:29:16.838Z,99.90
2022-09-12T01:29:53.900Z,99.90
2022-09-12T01:30:19.188Z,99.90
2022-09-12T01:31:00.934Z,99.90
2022-09-12T01:31:35.113Z,99.90
2022-09-12T01:31:52.302Z,99.90
2022-09-12T01:32:34.933Z,99.90
2022-09-12T01:32:55.332Z,99.90
2022-09-12T01:33:29.633Z,99.90
2022-09-12T01:33:50.334Z,99.90
2022-09-12T01:34:28.231Z,99.90
2022-09-12T01:34:43.673Z,99.90
2022-09-12T01:35:00.697Z,99.90
2022-09-12T01:35:25.409Z,99.90
2022-09-12T01:36:05.631Z,99.90
2022-09-12T01:36:45.946Z,99.90
2022-09-12T01:37:03.697Z,99.90
2022-09-12T01:37:20.272Z,99.90
2022-09-12T01:37:51.537Z,99.90
2022-09-12T01:38:25.932Z,99.90
2022-09-12T01:38:48.722Z,99.90
2022-09-12T01:39:02.498Z,99.90
2022-09-12T01:39:20.809Z,99.90
2022-09-12T01:39:52.309Z,99.90
2022-09-12T01:40:26.396Z,99.90
2022-09-12T01:40:49.101Z,99.90
2022-09-12T01:41:14.547Z,99.90
2022-09-12T01:41:43.518Z,99.90
2022-09-12T01:42:35.723Z,99.90
2022-09-12T01:42:56.782Z,99.90
2022-09-12T01:43:21.966Z,99.90
2022-09-12T01:43:41.977Z,99.90
2022-09-12T01:43:59.590Z,99.90
2022-09-12T01:44:29.572Z,99.90
2022-09-12T01:44:57.003Z,99.90
2022-09-12T01:45:16.715Z,99.90
2022-09-12T01:45:33.004Z,99.90
2022-09-12T01:45:47.315Z,99.90
2022-09-12T01:46:19.082Z,99.90
2022-09-12T01:46:33.901Z,99.90
2022-09-12T01:46:54.323Z,99.90
2022-09-12T01:47:15.732Z,99.90
2022-09-12T01:47:40.838Z,99.90
2022-09-12T01:48:13.093Z,99.90
2022-09-12T01:48:27.760Z,99.90
2022-09-12T01:48:44.187Z,99.90
2022-09-12T01:48:57.775Z,99.90
2022-09-12T01:49:17.379Z,99.90
2022-09-12T01:49:32.943Z,99.90
2022-09-12T01:49:56.054Z,99.90
2022-09-12T01:51:02.868Z,99.90
2022-09-12T01:51:22.352Z,99.90
2022-09-12T01:51:39.923Z,99.90
2022-09-12T01:51:58.916Z,99.90
2022-09-12T01:52:32.415Z,99.90
2022-09-12T01:53:05.025Z,99.90
2022-09-12T01:53:20.661Z,99.90
2022-09-12T01:53:38.234Z,99.90
2022-09-12T01:53:55.784Z,99.90
2022-09-12T01:54:13.479Z,99.90
2022-09-12T01:54:32.313Z,99.90
2022-09-12T01:55:09.811Z,99.90
2022-09-12T01:55:34.119Z,99.90
2022-09-12T01:55:55.509Z,99.90
2022-09-12T01:56:10.433Z,99.90
2022-09-12T01:56:26.905Z,99.90
2022-09-12T01:56:39.325Z,99.90
2022-09-12T01:56:52.741Z,99.90
2022-09-12T01:57:07.503Z,99.90
2022-09-12T01:57:41.348Z,99.90
2022-09-12T01:58:07.430Z,99.90
2022-09-12T01:58:21.569Z,99.90
2022-09-12T01:58:39.413Z,99.90
2022-09-12T01:58:54.392Z,99.90
2022-09-12T01:59:11.252Z,99.90
2022-09-12T01:59:28.643Z,99.90
2022-09-12T01:59:44.299Z,99.90
2022-09-12T01:59:59.173Z,99.90
2022-09-12T02:00:11.549Z,99.90
2022-09-12T02:00:23.247Z,99.90
2022-09-12T02:00:37.805Z,99.90
2022-09-12T02:01:04.535Z,99.90
2022-09-12T02:01:36.573Z,99.90
2022-09-12T02:01:52.902Z,99.90
2022-09-12T02:02:33.965Z,99.90
2022-09-12T02:02:49.985Z,99.90
2022-09-12T02:03:10.211Z,99.90
2022-09-12T02:03:27.767Z,99.90
2022-09-12T02:03:51.945Z,99.90
2022-09-12T02:04:10.002Z,99.90
2022-09-12T02:04:34.481Z,99.90
2022-09-12T02:04:52.178Z,99.90
2022-09-12T02:05:11.334Z,99.90
2022-09-12T02:05:56.048Z,99.90
2022-09-12T02:06:10.412Z,99.90
2022-09-12T02:06:38.268Z,99.90
2022-09-12T02:06:54.239Z,99.90
2022-09-12T02:07:13.192Z,99.90
2022-09-12T02:07:28.962Z,99.90
2022-09-12T02:07:45.494Z,99.90
2022-09-12T02:08:02.997Z,99.90
2022-09-12T02:08:17.761Z,99.90
2022-09-12T02:08:32.830Z,99.90
2022-09-12T02:08:47.296Z,99.90
2022-09-12T02:09:14.908Z,99.90
2022-09-12T02:09:29.933Z,99.90
2022-09-12T02:09:47.480Z,99.90
2022-09-12T02:10:13.778Z,99.90
2022-09-12T02:10:31.762Z,99.90
2022-09-12T02:10:47.953Z,99.90
2022-09-12T02:11:01.993Z,99.90
2022-09-12T02:11:13.802Z,99.90
2022-09-12T02:11:25.560Z,99.90
2022-09-12T02:11:38.916Z,99.90
2022-09-12T02:11:51.194Z,99.90
2022-09-12T02:12:03.800Z,99.90
2022-09-12T02:12:17.696Z,99.90
2022-09-12T02:12:31.751Z,99.90
2022-09-12T02:13:08.472Z,99.90
2022-09-12T02:13:23.448Z,99.90
2022-09-12T02:13:47.821Z,99.90
2022-09-12T02:14:02.950Z,99.90
2022-09-12T02:14:23.241Z,99.90
2022-09-12T02:14:38.001Z,99.90
2022-09-12T02:14:55.208Z,99.90
2022-09-12T02:15:08.659Z,99.90
2022-09-12T02:15:21.846Z,99.90
2022-09-12T02:15:36.695Z,99.90
2022-09-12T02:15:51.161Z,99.90
2022-09-12T02:16:17.983Z,99.90
2022-09-12T02:16:42.464Z,99.90
2022-09-12T02:17:19.629Z,99.90
2022-09-12T02:17:31.313Z,99.90
2022-09-12T02:17:43.686Z,99.90
2022-09-12T02:17:57.534Z,99.90
2022-09-12T02:18:10.052Z,99.90
2022-09-12T02:18:21.900Z,99.90
2022-09-12T02:18:33.613Z,99.90
2022-09-12T02:18:47.731Z,99.90
2022-09-12T02:19:07.955Z,99.90
2022-09-12T02:19:24.385Z,99.90
2022-09-12T02:19:40.141Z,99.90
2022-09-12T02:19:51.901Z,99.90
2022-09-12T02:20:14.639Z,99.90
2022-09-12T02:20:47.863Z,99.90
2022-09-12T02:21:00.349Z,99.90
2022-09-12T02:21:12.052Z,99.90
2022-09-12T02:21:24.117Z,99.90
2022-09-12T02:21:36.256Z,99.90
2022-09-12T02:21:52.763Z,99.90
2022-09-12T02:22:04.767Z,99.90
2022-09-12T02:22:17.571Z,99.90
2022-09-12T02:22:30.412Z,99.90
2022-09-12T02:22:42.111Z,99.90
2022-09-12T02:22:53.876Z,99.90
2022-09-12T02:23:10.016Z,99.90
2022-09-12T02:23:29.151Z,99.90
2022-09-12T02:23:44.858Z,99.90
2022-09-12T02:23:58.756Z,99.90
2022-09-12T02:24:10.517Z,99.90
2022-09-12T02:24:23.320Z,99.90
2022-09-12T02:24:39.600Z,99.90
2022-09-12T02:24:54.049Z,99.90
2022-09-12T02:25:06.323Z,99.90
2022-09-12T02:25:18.579Z,99.90
2022-09-12T02:25:30.305Z,99.90
2022-09-12T02:25:43.338Z,99.90
2022-09-12T02:25:57.636Z,99.90
2022-09-12T02:26:21.420Z,99.90
2022-09-12T02:26:35.580Z,99.90
2022-09-12T02:26:52.786Z,99.90
2022-09-12T02:27:20.464Z,99.90
2022-09-12T02:27:42.985Z,99.90
2022-09-12T02:28:03.964Z,99.90
2022-09-12T02:28:18.118Z,99.90
2022-09-12T02:28:34.951Z,99.90
2022-09-12T02:28:47.028Z,99.90
2022-09-12T02:28:58.896Z,99.90
2022-09-12T02:29:10.596Z,99.90
2022-09-12T02:29:22.429Z,99.90
2022-09-12T02:29:34.122Z,99.90
2022-09-12T02:29:45.904Z,99.90
2022-09-12T02:29:57.661Z,99.90
2022-09-12T02:30:09.810Z,99.90
2022-09-12T02:30:21.553Z,99.90
2022-09-12T02:30:37.545Z,99.90
2022-09-12T02:31:18.628Z,99.90
2022-09-12T02:31:33.764Z,99.90
2022-09-12T02:31:50.277Z,99.90
2022-09-12T02:32:05.861Z,99.90
2022-09-12T02:32:35.867Z,99.90
2022-09-12T02:33:15.273Z,99.90
2022-09-12T02:33:27.622Z,99.90
2022-09-12T02:33:46.955Z,99.90
2022-09-12T02:34:29.129Z,99.90
2022-09-12T02:34:53.412Z,99.90
2022-09-12T02:35:22.222Z,99.90
2022-09-12T02:35:39.315Z,99.90
2022-09-12T02:36:14.439Z,99.90
2022-09-12T02:36:47.670Z,99.90
2022-09-12T02:37:44.073Z,99.90
2022-09-12T02:38:11.393Z,99.90
2022-09-12T02:38:32.016Z,99.90
2022-09-12T02:38:45.840Z,99.90
2022-09-12T02:38:57.785Z,99.90
2022-09-12T02:39:09.829Z,99.90
2022-09-12T02:39:21.657Z,99.90
2022-09-12T02:39:33.660Z,99.90
2022-09-12T02:39:45.728Z,99.90
2022-09-12T02:39:58.192Z,99.90
2022-09-12T02:40:10.004Z,99.90
2022-09-12T02:40:22.917Z,99.90
2022-09-12T02:40:35.337Z,99.90
2022-09-12T02:40:47.045Z,99.90
2022-09-12T02:40:58.858Z,99.90
2022-09-12T02:41:11.246Z,99.90
2022-09-12T02:41:23.045Z,99.90
2022-09-12T02:41:34.846Z,99.90
2022-09-12T02:41:52.636Z,99.90
2022-09-12T02:42:04.419Z,99.90
2022-09-12T02:42:16.248Z,99.90
2022-09-12T02:42:27.999Z,99.90
2022-09-12T02:42:39.824Z,99.90
2022-09-12T02:42:51.624Z,99.90
2022-09-12T02:43:05.001Z,99.90
2022-09-12T02:43:16.792Z,99.90
2022-09-12T02:43:28.494Z,99.90
2022-09-12T02:43:40.949Z,99.90
2022-09-12T02:43:52.800Z,99.90
2022-09-12T02:44:04.940Z,99.90
2022-09-12T02:44:16.685Z,99.90
2022-09-12T02:44:29.260Z,99.90
2022-09-12T02:44:43.870Z,99.90
2022-09-12T02:44:55.674Z,99.90
2022-09-12T02:45:07.838Z,99.90
2022-09-12T02:45:19.604Z,99.90
2022-09-12T02:45:34.234Z,99.90
2022-09-12T02:45:46.070Z,99.90
2022-09-12T02:45:57.885Z,99.90
2022-09-12T02:46:15.835Z,99.90
2022-09-12T02:46:47.999Z,99.90
2022-09-12T02:47:20.180Z,99.90
2022-09-12T02:47:41.467Z,99.90
2022-09-12T02:47:59.372Z,99.90
2022-09-12T02:48:17.028Z,99.90
2022-09-12T02:48:31.321Z,99.90
2022-09-12T02:48:43.519Z,99.90
2022-09-12T02:48:55.781Z,99.90
2022-09-12T02:49:09.523Z,99.90
2022-09-12T02:49:21.379Z,99.90
2022-09-12T02:49:33.056Z,99.90
2022-09-12T02:49:44.894Z,99.90
2022-09-12T02:49:56.988Z,99.90
2022-09-12T02:50:08.981Z,99.90
2022-09-12T02:50:20.885Z,99.90
2022-09-12T02:50:32.640Z,99.90
2022-09-12T02:50:44.448Z,99.90
2022-09-12T02:50:56.251Z,99.90
2022-09-12T02:51:08.017Z,99.90
2022-09-12T02:51:23.519Z,99.90
2022-09-12T02:51:35.571Z,99.90
2022-09-12T02:51:47.279Z,99.90
2022-09-12T02:51:59.610Z,99.90
2022-09-12T02:52:14.545Z,99.90
2022-09-12T02:52:27.404Z,99.90
2022-09-12T02:52:39.112Z,99.90
2022-09-12T02:52:51.265Z,99.90
2022-09-12T02:53:05.018Z,99.90
2022-09-12T02:53:16.770Z,99.90
2022-09-12T02:53:28.658Z,99.90
2022-09-12T02:53:41.200Z,99.90
2022-09-12T02:53:53.016Z,99.90
2022-09-12T02:54:06.535Z,99.90
2022-09-12T02:54:18.377Z,99.90
2022-09-12T02:54:30.476Z,99.90
2022-09-12T02:54:42.226Z,99.90
2022-09-12T02:54:53.923Z,99.90
2022-09-12T02:55:06.006Z,99.90
2022-09-12T02:55:17.766Z,99.90
2022-09-12T02:55:30.524Z,99.90
2022-09-12T02:55:42.268Z,99.90
2022-09-12T02:55:53.967Z,99.90
2022-09-12T02:56:06.090Z,99.90
2022-09-12T02:56:21.723Z,99.90
2022-09-12T02:56:33.452Z,99.90
2022-09-12T02:56:45.599Z,99.90
2022-09-12T02:56:57.317Z,99.90
2022-09-12T02:57:22.567Z,99.90
2022-09-12T02:57:34.880Z,99.90
2022-09-12T02:57:46.602Z,99.90
2022-09-12T02:57:58.997Z,99.90
2022-09-12T02:58:13.423Z,99.90
2022-09-12T02:58:27.170Z,99.90
2022-09-12T02:58:38.859Z,99.90
2022-09-12T02:58:50.607Z,99.90
2022-09-12T02:59:05.676Z,99.90
2022-09-12T02:59:19.259Z,99.90
2022-09-12T02:59:30.966Z,99.90
2022-09-12T02:59:42.732Z,99.90
2022-09-12T02:59:56.537Z,99.90
2022-09-12T03:00:08.733Z,99.90
2022-09-12T03:00:20.545Z,99.90
2022-09-12T03:00:46.629Z,99.90
2022-09-12T03:01:27.829Z,99.90
2022-09-12T03:01:58.129Z,99.90
2022-09-12T03:02:28.651Z,99.90
2022-09-12T03:02:58.192Z,99.90
2022-09-12T03:03:16.360Z,99.90
2022-09-12T03:03:51.685Z,99.90
2022-09-12T03:04:25.696Z,99.90
2022-09-12T03:05:05.772Z,99.90
2022-09-12T03:05:24.919Z,99.90
2022-09-12T03:05:59.121Z,99.90
2022-09-12T03:06:18.360Z,99.90
2022-09-12T03:06:48.800Z,99.90
2022-09-12T03:07:03.445Z,99.90
2022-09-12T03:07:27.149Z,99.90
2022-09-12T03:08:13.981Z,99.90
2022-09-12T03:08:56.222Z,99.90
2022-09-12T03:09:29.093Z,99.90
2022-09-12T03:09:58.552Z,99.90
2022-09-12T03:10:17.061Z,99.90
2022-09-12T03:10:53.232Z,99.90
2022-09-12T03:11:38.517Z,99.90
2022-09-12T03:11:59.079Z,99.90
2022-09-12T03:12:41.547Z,99.90
2022-09-12T03:13:02.970Z,99.90
2022-09-12T03:13:20.690Z,99.90
2022-09-12T03:13:46.184Z,99.90
2022-09-12T03:14:06.799Z,99.90
2022-09-12T03:14:24.510Z,99.90
2022-09-12T03:14:41.965Z,99.90
2022-09-12T03:15:02.158Z,99.90
2022-09-12T03:15:33.858Z,99.90
2022-09-12T03:16:05.217Z,99.90
2022-09-12T03:16:44.483Z,99.90
2022-09-12T03:17:17.085Z,99.90
2022-09-12T03:17:59.470Z,99.90
2022-09-12T03:18:40.493Z,99.90
2022-09-12T03:18:58.577Z,99.90
2022-09-12T03:19:16.774Z,99.90
2022-09-12T03:19:49.863Z,99.90
2022-09-12T03:20:22.546Z,99.90
2022-09-12T03:20:46.042Z,99.90
2022-09-12T03:21:02.412Z,99.90
2022-09-12T03:21:59.576Z,99.90
2022-09-12T03:22:21.897Z,99.90
2022-09-12T03:23:22.281Z,99.90
2022-09-12T03:23:40.770Z,99.90
2022-09-12T03:24:04.688Z,99.90
2022-09-12T03:24:18.730Z,99.90
2022-09-12T03:24:33.287Z,99.90
2022-09-12T03:25:03.020Z,99.90
2022-09-12T03:25:23.544Z,99.90
2022-09-12T03:25:36.907Z,99.90
2022-09-12T03:25:51.725Z,99.90
2022-09-12T03:26:09.609Z,99.90
2022-09-12T03:26:28.775Z,99.90
2022-09-12T03:26:48.068Z,99.90
2022-09-12T03:27:22.270Z,99.90
2022-09-12T03:27:36.642Z,99.90
2022-09-12T03:27:56.988Z,99.90
2022-09-12T03:28:13.978Z,99.90
2022-09-12T03:28:25.718Z,99.90
2022-09-12T03:28:37.459Z,99.90
2022-09-12T03:28:49.186Z,99.90
2022-09-12T03:29:01.068Z,99.90
2022-09-12T03:29:12.914Z,99.90
2022-09-12T03:29:24.715Z,99.90
2022-09-12T03:29:37.151Z,99.90
2022-09-12T03:29:51.588Z,99.90
2022-09-12T03:30:05.347Z,99.90
2022-09-12T03:30:17.869Z,99.90
2022-09-12T03:30:29.661Z,99.90
2022-09-12T03:30:44.158Z,99.90
2022-09-12T03:30:56.530Z,99.90
2022-09-12T03:31:18.337Z,99.90
2022-09-12T03:31:30.040Z,99.90
2022-09-12T03:31:55.235Z,99.90
2022-09-12T03:32:07.514Z,99.90
2022-09-12T03:32:19.206Z,99.90
2022-09-12T03:32:47.762Z,99.90
2022-09-12T03:32:59.421Z,99.90
2022-09-12T03:33:20.183Z,99.90
2022-09-12T03:33:31.965Z,99.90
2022-09-12T03:33:44.258Z,99.90
2022-09-12T03:34:00.454Z,99.90
2022-09-12T03:34:13.195Z,99.90
2022-09-12T03:34:26.231Z,99.90
2022-09-12T03:34:37.966Z,99.90
2022-09-12T03:34:49.642Z,99.90
2022-09-12T03:35:01.289Z,99.90
2022-09-12T03:35:17.239Z,99.90
2022-09-12T03:35:31.547Z,99.90
2022-09-12T03:35:43.790Z,99.90
2022-09-12T03:35:55.615Z,99.90
2022-09-12T03:36:13.396Z,99.90
2022-09-12T03:36:26.595Z,99.90
2022-09-12T03:36:39.933Z,99.90
2022-09-12T03:36:52.016Z,99.90
2022-09-12T03:37:03.783Z,99.90
2022-09-12T03:37:15.553Z,99.90